Forest Grove, MT

12:19 PM MDT on April 25, 2015 (GMT -0600)
Billings Logan International | | Change Station
CLOSE
Current Station
Airport
Location: Billings,
Elevation: 3570 ft
Nearby Weather Stations

Elev 3570 ft 45.81 °N, 108.54 °W | Updated 26 minutes ago

Overcast
Overcast
42 °F
Feels Like 38 °F
N
7
Wind Variable Wind from NNE

Today
High -- | Low -- °F
--% Chance of Precip.
Yesterday
High -- | Low -- °F
Precip. -- in
6:11 AM 8:18 PM
Waxing Crescent, 48% visible
Pressure 29.82 in
Visibility 10.0 miles
Clouds Few 1800 ft
Mostly Cloudy 4700 ft
Overcast 5500 ft
Windchill 38 °F
Dew Point 36 °F
Humidity 79%
Rainfall 0.19 in
Snow Depth Not available.
UV 3 out of 12
Pollen 9.50 out of 12
Air Quality Not available.
Flu Activity Local Activity
METAR KBIL 251753Z 03006KT 10SM -RA FEW018 BKN047 OVC055 06/02 A2980 RMK AO2 SLP097 P0001 60010 T00560022 10056 20039 51010

More Conditions Fewer Conditions

Pressure 29.82 in
Visibility 10.0 miles
Clouds Few 1800 ft
Mostly Cloudy 4700 ft
Overcast 5500 ft
Windchill 38 °F
Dew Point 36 °F
Humidity 79%
Rainfall 0.19 in
Snow Depth Not available.
UV 3 out of 12
Pollen 9.50 out of 12
Air Quality Not available.
Flu Activity Local Activity
METAR KBIL 251753Z 03006KT 10SM -RA FEW018 BKN047 OVC055 06/02 A2980 RMK AO2 SLP097 P0001 60010 T00560022 10056 20039 51010

More Conditions Fewer Conditions

10-Day Weather Forecast

Almanac

Astronomy

Apr. 25, 2015 Rise Set
Actual Time
Civil Twilight
Nautical Twilight
Astronomical Twilight
Moon
Length of Visible Light
Length of Day
Tomorrow will be .
, % of the Moon is Illuminated

Today's Extremes

State Highs State Lows

Community

WunderPhotos

Upload Photos

1,816,763 photos uploaded!

WunderBlogs® & News

Nearby

Air Quality

  Air Quality AQ Index Pollutant
Not available.

Snow Depth

Station Depth Elevation

Earthquake Activity

City Distance Mag. Time & Date
Minimum magnitude displayed is 2.5.

Coastal Water Temperatures

Place Temperature

Stations

Nearby Weather Stations

Station Location Temp. Windchill Dew Point Humidity Wind Precip. Elev Updated Type